sensor_id;sensor_type;location;lat;lon;timestamp;P1;durP1;ratioP1;P2;durP2;ratioP2
59530;SDS011;45349;48.692;8.186;2022-09-17T00:01:25;1.73;;;0.70;;
59530;SDS011;45349;48.692;8.186;2022-09-17T00:03:53;1.40;;;0.60;;
59530;SDS011;45349;48.692;8.186;2022-09-17T00:06:22;3.43;;;0.60;;
59530;SDS011;45349;48.692;8.186;2022-09-17T00:08:50;1.70;;;0.60;;
59530;SDS011;45349;48.692;8.186;2022-09-17T00:11:42;3.27;;;0.90;;
59530;SDS011;45349;48.692;8.186;2022-09-17T00:14:11;2.80;;;0.70;;
59530;SDS011;45349;48.692;8.186;2022-09-17T00:16:40;3.07;;;0.97;;
59530;SDS011;45349;48.692;8.186;2022-09-17T00:19:09;3.37;;;0.70;;
59530;SDS011;45349;48.692;8.186;2022-09-17T00:21:39;5.97;;;0.90;;
59530;SDS011;45349;48.692;8.186;2022-09-17T00:24:06;3.70;;;0.67;;
59530;SDS011;45349;48.692;8.186;2022-09-17T00:26:33;2.97;;;0.90;;
59530;SDS011;45349;48.692;8.186;2022-09-17T00:29:02;2.13;;;0.70;;
59530;SDS011;45349;48.692;8.186;2022-09-17T00:31:30;4.07;;;0.93;;
59530;SDS011;45349;48.692;8.186;2022-09-17T00:33:57;5.80;;;0.70;;
59530;SDS011;45349;48.692;8.186;2022-09-17T00:36:25;4.80;;;0.90;;
59530;SDS011;45349;48.692;8.186;2022-09-17T00:38:52;2.30;;;0.70;;
59530;SDS011;45349;48.692;8.186;2022-09-17T00:41:20;1.13;;;0.57;;
59530;SDS011;45349;48.692;8.186;2022-09-17T00:43:51;2.60;;;0.90;;
59530;SDS011;45349;48.692;8.186;2022-09-17T00:46:24;1.48;;;0.70;;
59530;SDS011;45349;48.692;8.186;2022-09-17T00:48:57;3.17;;;0.63;;
59530;SDS011;45349;48.692;8.186;2022-09-17T00:51:27;5.77;;;0.87;;
59530;SDS011;45349;48.692;8.186;2022-09-17T00:53:59;3.20;;;0.70;;
59530;SDS011;45349;48.692;8.186;2022-09-17T00:56:28;6.03;;;0.63;;
59530;SDS011;45349;48.692;8.186;2022-09-17T00:58:58;2.20;;;0.90;;
59530;SDS011;45349;48.692;8.186;2022-09-17T01:01:28;3.60;;;0.60;;
59530;SDS011;45349;48.692;8.186;2022-09-17T01:03:54;2.50;;;0.50;;
59530;SDS011;45349;48.692;8.186;2022-09-17T01:06:23;4.53;;;0.90;;
59530;SDS011;45349;48.692;8.186;2022-09-17T01:09:07;2.63;;;0.50;;
59530;SDS011;45349;48.692;8.186;2022-09-17T01:11:48;1.77;;;0.73;;
59530;SDS011;45349;48.692;8.186;2022-09-17T01:14:29;1.30;;;0.60;;
59530;SDS011;45349;48.692;8.186;2022-09-17T01:17:12;3.00;;;0.90;;
59530;SDS011;45349;48.692;8.186;2022-09-17T01:22:40;4.70;;;1.30;;
59530;SDS011;45349;48.692;8.186;2022-09-17T01:25:20;3.30;;;0.70;;
59530;SDS011;45349;48.692;8.186;2022-09-17T01:28:13;1.50;;;0.60;;
59530;SDS011;45349;48.692;8.186;2022-09-17T01:31:02;1.57;;;0.73;;
59530;SDS011;45349;48.692;8.186;2022-09-17T01:33:39;4.43;;;0.83;;
59530;SDS011;45349;48.692;8.186;2022-09-17T01:36:17;5.63;;;0.63;;
59530;SDS011;45349;48.692;8.186;2022-09-17T01:38:53;2.27;;;1.40;;
59530;SDS011;45349;48.692;8.186;2022-09-17T01:41:29;7.63;;;1.47;;
59530;SDS011;45349;48.692;8.186;2022-09-17T01:44:05;1.83;;;0.80;;
59530;SDS011;45349;48.692;8.186;2022-09-17T01:46:42;4.70;;;1.10;;
59530;SDS011;45349;48.692;8.186;2022-09-17T01:49:13;3.47;;;1.10;;
59530;SDS011;45349;48.692;8.186;2022-09-17T01:51:42;4.97;;;0.90;;
59530;SDS011;45349;48.692;8.186;2022-09-17T01:54:14;5.07;;;1.00;;
59530;SDS011;45349;48.692;8.186;2022-09-17T01:56:45;1.57;;;0.80;;
59530;SDS011;45349;48.692;8.186;2022-09-17T01:59:18;3.87;;;1.00;;
59530;SDS011;45349;48.692;8.186;2022-09-17T02:01:50;1.43;;;1.27;;
59530;SDS011;45349;48.692;8.186;2022-09-17T02:04:21;4.30;;;1.13;;
59530;SDS011;45349;48.692;8.186;2022-09-17T02:06:52;3.47;;;1.30;;
59530;SDS011;45349;48.692;8.186;2022-09-17T02:09:25;2.73;;;1.20;;
59530;SDS011;45349;48.692;8.186;2022-09-17T02:11:58;3.53;;;1.20;;
59530;SDS011;45349;48.692;8.186;2022-09-17T02:14:29;4.70;;;1.23;;
59530;SDS011;45349;48.692;8.186;2022-09-17T02:17:04;3.43;;;1.13;;
59530;SDS011;45349;48.692;8.186;2022-09-17T02:19:36;5.40;;;1.10;;
59530;SDS011;45349;48.692;8.186;2022-09-17T02:22:05;3.73;;;1.10;;
59530;SDS011;45349;48.692;8.186;2022-09-17T02:24:42;7.03;;;1.23;;
59530;SDS011;45349;48.692;8.186;2022-09-17T02:27:12;3.70;;;1.10;;
59530;SDS011;45349;48.692;8.186;2022-09-17T02:29:46;4.90;;;1.10;;
59530;SDS011;45349;48.692;8.186;2022-09-17T02:32:14;4.20;;;1.10;;
59530;SDS011;45349;48.692;8.186;2022-09-17T02:34:40;6.20;;;1.40;;
59530;SDS011;45349;48.692;8.186;2022-09-17T02:37:07;4.13;;;1.63;;
59530;SDS011;45349;48.692;8.186;2022-09-17T02:39:34;9.23;;;1.57;;
59530;SDS011;45349;48.692;8.186;2022-09-17T02:42:02;5.27;;;1.50;;
59530;SDS011;45349;48.692;8.186;2022-09-17T02:44:39;4.93;;;2.10;;
59530;SDS011;45349;48.692;8.186;2022-09-17T02:47:17;5.90;;;2.00;;
59530;SDS011;45349;48.692;8.186;2022-09-17T02:50:01;2.83;;;1.30;;
59530;SDS011;45349;48.692;8.186;2022-09-17T02:52:45;4.30;;;1.90;;
59530;SDS011;45349;48.692;8.186;2022-09-17T02:55:24;3.03;;;1.53;;
59530;SDS011;45349;48.692;8.186;2022-09-17T02:58:02;4.87;;;2.00;;
59530;SDS011;45349;48.692;8.186;2022-09-17T03:03:53;5.70;;;2.10;;
59530;SDS011;45349;48.692;8.186;2022-09-17T03:06:24;6.40;;;1.80;;
59530;SDS011;45349;48.692;8.186;2022-09-17T03:08:51;4.87;;;1.70;;
59530;SDS011;45349;48.692;8.186;2022-09-17T03:11:18;4.23;;;1.57;;
59530;SDS011;45349;48.692;8.186;2022-09-17T03:13:45;3.27;;;1.70;;
59530;SDS011;45349;48.692;8.186;2022-09-17T03:16:13;3.53;;;1.77;;
59530;SDS011;45349;48.692;8.186;2022-09-17T03:18:39;5.10;;;1.97;;
59530;SDS011;45349;48.692;8.186;2022-09-17T03:21:08;7.33;;;2.30;;
59530;SDS011;45349;48.692;8.186;2022-09-17T03:23:36;11.70;;;3.00;;
59530;SDS011;45349;48.692;8.186;2022-09-17T03:26:04;4.87;;;2.13;;
59530;SDS011;45349;48.692;8.186;2022-09-17T03:28:30;7.00;;;2.03;;
59530;SDS011;45349;48.692;8.186;2022-09-17T03:30:57;5.47;;;2.33;;
59530;SDS011;45349;48.692;8.186;2022-09-17T03:33:24;6.50;;;2.03;;
59530;SDS011;45349;48.692;8.186;2022-09-17T03:35:50;5.23;;;2.00;;
59530;SDS011;45349;48.692;8.186;2022-09-17T03:38:18;5.57;;;2.67;;
59530;SDS011;45349;48.692;8.186;2022-09-17T03:40:55;7.17;;;2.37;;
59530;SDS011;45349;48.692;8.186;2022-09-17T03:43:22;7.40;;;2.70;;
59530;SDS011;45349;48.692;8.186;2022-09-17T03:45:49;5.23;;;2.90;;
59530;SDS011;45349;48.692;8.186;2022-09-17T03:48:16;4.73;;;2.10;;
59530;SDS011;45349;48.692;8.186;2022-09-17T03:50:42;4.53;;;2.30;;
59530;SDS011;45349;48.692;8.186;2022-09-17T03:53:09;4.87;;;2.60;;
59530;SDS011;45349;48.692;8.186;2022-09-17T03:55:38;6.30;;;2.63;;
59530;SDS011;45349;48.692;8.186;2022-09-17T03:58:04;8.07;;;2.93;;
59530;SDS011;45349;48.692;8.186;2022-09-17T04:00:31;6.60;;;2.50;;
59530;SDS011;45349;48.692;8.186;2022-09-17T04:03:00;6.43;;;2.30;;
59530;SDS011;45349;48.692;8.186;2022-09-17T04:05:27;6.00;;;2.73;;
59530;SDS011;45349;48.692;8.186;2022-09-17T04:07:53;7.00;;;2.20;;
59530;SDS011;45349;48.692;8.186;2022-09-17T04:10:20;10.53;;;2.63;;
59530;SDS011;45349;48.692;8.186;2022-09-17T04:12:48;5.63;;;2.63;;
59530;SDS011;45349;48.692;8.186;2022-09-17T04:15:15;5.57;;;2.60;;
59530;SDS011;45349;48.692;8.186;2022-09-17T04:17:42;5.80;;;2.70;;
59530;SDS011;45349;48.692;8.186;2022-09-17T04:20:09;7.90;;;2.70;;
59530;SDS011;45349;48.692;8.186;2022-09-17T04:22:35;5.77;;;2.70;;
59530;SDS011;45349;48.692;8.186;2022-09-17T04:25:02;6.57;;;2.80;;
59530;SDS011;45349;48.692;8.186;2022-09-17T04:27:29;6.17;;;3.20;;
59530;SDS011;45349;48.692;8.186;2022-09-17T04:29:57;9.10;;;2.57;;
59530;SDS011;45349;48.692;8.186;2022-09-17T04:32:23;7.33;;;2.47;;
59530;SDS011;45349;48.692;8.186;2022-09-17T04:34:50;6.40;;;2.60;;
59530;SDS011;45349;48.692;8.186;2022-09-17T04:37:16;5.30;;;2.60;;
59530;SDS011;45349;48.692;8.186;2022-09-17T04:39:44;6.23;;;2.97;;
59530;SDS011;45349;48.692;8.186;2022-09-17T04:42:10;4.73;;;2.83;;
59530;SDS011;45349;48.692;8.186;2022-09-17T04:44:37;6.10;;;2.90;;
59530;SDS011;45349;48.692;8.186;2022-09-17T04:47:05;8.70;;;3.17;;
59530;SDS011;45349;48.692;8.186;2022-09-17T04:49:32;7.23;;;2.60;;
59530;SDS011;45349;48.692;8.186;2022-09-17T04:51:58;4.93;;;2.70;;
59530;SDS011;45349;48.692;8.186;2022-09-17T04:54:25;5.33;;;2.70;;
59530;SDS011;45349;48.692;8.186;2022-09-17T04:56:54;5.47;;;2.73;;
59530;SDS011;45349;48.692;8.186;2022-09-17T04:59:22;7.90;;;2.87;;
59530;SDS011;45349;48.692;8.186;2022-09-17T05:01:49;8.33;;;3.33;;
59530;SDS011;45349;48.692;8.186;2022-09-17T05:04:21;6.33;;;3.03;;
59530;SDS011;45349;48.692;8.186;2022-09-17T05:06:57;7.67;;;3.23;;
59530;SDS011;45349;48.692;8.186;2022-09-17T05:09:24;4.10;;;3.10;;
59530;SDS011;45349;48.692;8.186;2022-09-17T05:11:52;6.93;;;3.30;;
59530;SDS011;45349;48.692;8.186;2022-09-17T05:14:19;13.00;;;3.57;;
59530;SDS011;45349;48.692;8.186;2022-09-17T05:16:58;8.33;;;3.70;;
59530;SDS011;45349;48.692;8.186;2022-09-17T05:19:31;7.90;;;4.03;;
59530;SDS011;45349;48.692;8.186;2022-09-17T05:22:03;7.23;;;3.37;;
59530;SDS011;45349;48.692;8.186;2022-09-17T05:24:30;8.23;;;3.53;;
59530;SDS011;45349;48.692;8.186;2022-09-17T05:26:59;8.00;;;3.30;;
59530;SDS011;45349;48.692;8.186;2022-09-17T05:29:30;6.77;;;3.17;;
59530;SDS011;45349;48.692;8.186;2022-09-17T05:31:57;6.53;;;2.90;;
59530;SDS011;45349;48.692;8.186;2022-09-17T05:34:24;4.67;;;3.00;;
59530;SDS011;45349;48.692;8.186;2022-09-17T05:36:52;8.97;;;3.03;;
59530;SDS011;45349;48.692;8.186;2022-09-17T05:39:19;8.00;;;2.60;;
59530;SDS011;45349;48.692;8.186;2022-09-17T05:41:49;7.73;;;3.10;;
59530;SDS011;45349;48.692;8.186;2022-09-17T05:44:16;4.30;;;2.60;;
59530;SDS011;45349;48.692;8.186;2022-09-17T05:46:43;6.43;;;3.17;;
59530;SDS011;45349;48.692;8.186;2022-09-17T05:49:10;8.50;;;3.17;;
59530;SDS011;45349;48.692;8.186;2022-09-17T05:51:37;6.40;;;3.13;;
59530;SDS011;45349;48.692;8.186;2022-09-17T05:54:05;7.60;;;3.60;;
59530;SDS011;45349;48.692;8.186;2022-09-17T05:56:32;7.30;;;2.80;;
59530;SDS011;45349;48.692;8.186;2022-09-17T05:58:59;5.47;;;2.50;;
59530;SDS011;45349;48.692;8.186;2022-09-17T06:01:26;11.87;;;3.23;;
59530;SDS011;45349;48.692;8.186;2022-09-17T06:04:11;4.70;;;2.50;;
59530;SDS011;45349;48.692;8.186;2022-09-17T06:06:38;5.30;;;2.70;;
59530;SDS011;45349;48.692;8.186;2022-09-17T06:09:07;6.30;;;2.47;;
59530;SDS011;45349;48.692;8.186;2022-09-17T06:11:35;7.30;;;2.60;;
59530;SDS011;45349;48.692;8.186;2022-09-17T06:14:02;4.40;;;2.47;;
59530;SDS011;45349;48.692;8.186;2022-09-17T06:16:29;8.27;;;2.50;;
59530;SDS011;45349;48.692;8.186;2022-09-17T06:18:56;8.70;;;2.50;;
59530;SDS011;45349;48.692;8.186;2022-09-17T06:21:23;5.57;;;2.67;;
59530;SDS011;45349;48.692;8.186;2022-09-17T06:23:49;4.57;;;2.10;;
59530;SDS011;45349;48.692;8.186;2022-09-17T06:26:17;4.13;;;2.53;;
59530;SDS011;45349;48.692;8.186;2022-09-17T06:28:44;10.00;;;2.50;;
59530;SDS011;45349;48.692;8.186;2022-09-17T06:31:11;4.10;;;1.80;;
59530;SDS011;45349;48.692;8.186;2022-09-17T06:33:39;10.53;;;2.33;;
59530;SDS011;45349;48.692;8.186;2022-09-17T06:36:06;4.97;;;2.13;;
59530;SDS011;45349;48.692;8.186;2022-09-17T06:38:35;7.10;;;3.00;;
59530;SDS011;45349;48.692;8.186;2022-09-17T06:41:02;9.80;;;3.00;;
59530;SDS011;45349;48.692;8.186;2022-09-17T06:43:30;4.00;;;2.73;;
59530;SDS011;45349;48.692;8.186;2022-09-17T06:45:58;6.23;;;3.20;;
59530;SDS011;45349;48.692;8.186;2022-09-17T06:48:26;5.67;;;3.27;;
59530;SDS011;45349;48.692;8.186;2022-09-17T06:50:54;7.33;;;2.93;;
59530;SDS011;45349;48.692;8.186;2022-09-17T06:53:22;4.43;;;3.00;;
59530;SDS011;45349;48.692;8.186;2022-09-17T06:55:49;6.97;;;3.50;;
59530;SDS011;45349;48.692;8.186;2022-09-17T06:58:16;6.70;;;3.60;;
59530;SDS011;45349;48.692;8.186;2022-09-17T07:00:44;7.43;;;3.50;;
59530;SDS011;45349;48.692;8.186;2022-09-17T07:03:12;6.43;;;3.73;;
59530;SDS011;45349;48.692;8.186;2022-09-17T07:05:38;8.33;;;3.33;;
59530;SDS011;45349;48.692;8.186;2022-09-17T07:08:08;7.67;;;3.10;;
59530;SDS011;45349;48.692;8.186;2022-09-17T07:10:35;10.27;;;3.60;;
59530;SDS011;45349;48.692;8.186;2022-09-17T07:13:02;5.20;;;3.13;;
59530;SDS011;45349;48.692;8.186;2022-09-17T07:15:28;7.00;;;3.40;;
59530;SDS011;45349;48.692;8.186;2022-09-17T07:17:56;7.63;;;3.47;;
59530;SDS011;45349;48.692;8.186;2022-09-17T07:20:23;5.57;;;3.20;;
59530;SDS011;45349;48.692;8.186;2022-09-17T07:22:53;6.47;;;3.20;;
59530;SDS011;45349;48.692;8.186;2022-09-17T07:25:21;4.03;;;2.83;;
59530;SDS011;45349;48.692;8.186;2022-09-17T07:27:48;5.90;;;3.50;;
59530;SDS011;45349;48.692;8.186;2022-09-17T07:30:15;11.17;;;3.30;;
59530;SDS011;45349;48.692;8.186;2022-09-17T07:32:42;10.53;;;3.97;;
59530;SDS011;45349;48.692;8.186;2022-09-17T07:35:10;5.13;;;3.03;;
59530;SDS011;45349;48.692;8.186;2022-09-17T07:37:37;7.83;;;3.40;;
59530;SDS011;45349;48.692;8.186;2022-09-17T07:40:04;9.53;;;3.73;;
59530;SDS011;45349;48.692;8.186;2022-09-17T07:42:32;5.63;;;3.30;;
59530;SDS011;45349;48.692;8.186;2022-09-17T07:44:59;8.40;;;3.37;;
59530;SDS011;45349;48.692;8.186;2022-09-17T07:47:26;7.13;;;2.90;;
59530;SDS011;45349;48.692;8.186;2022-09-17T07:49:53;6.77;;;4.50;;
59530;SDS011;45349;48.692;8.186;2022-09-17T07:52:21;12.37;;;3.90;;
59530;SDS011;45349;48.692;8.186;2022-09-17T07:54:54;7.70;;;3.40;;
59530;SDS011;45349;48.692;8.186;2022-09-17T08:00:27;5.23;;;3.23;;
59530;SDS011;45349;48.692;8.186;2022-09-17T08:03:08;7.93;;;3.50;;
59530;SDS011;45349;48.692;8.186;2022-09-17T08:06:01;6.80;;;2.93;;
59530;SDS011;45349;48.692;8.186;2022-09-17T08:08:50;8.40;;;3.33;;
59530;SDS011;45349;48.692;8.186;2022-09-17T08:14:53;6.57;;;3.17;;
59530;SDS011;45349;48.692;8.186;2022-09-17T08:17:23;5.80;;;3.50;;
59530;SDS011;45349;48.692;8.186;2022-09-17T08:20:05;7.67;;;3.63;;
59530;SDS011;45349;48.692;8.186;2022-09-17T08:22:58;8.50;;;3.37;;
59530;SDS011;45349;48.692;8.186;2022-09-17T08:25:44;8.80;;;3.27;;
59530;SDS011;45349;48.692;8.186;2022-09-17T08:28:42;6.80;;;3.20;;
59530;SDS011;45349;48.692;8.186;2022-09-17T08:31:33;10.87;;;3.80;;
59530;SDS011;45349;48.692;8.186;2022-09-17T08:34:14;8.33;;;3.10;;
59530;SDS011;45349;48.692;8.186;2022-09-17T08:36:53;13.27;;;3.20;;
59530;SDS011;45349;48.692;8.186;2022-09-17T08:39:27;10.90;;;3.50;;
59530;SDS011;45349;48.692;8.186;2022-09-17T08:42:14;11.13;;;3.17;;
59530;SDS011;45349;48.692;8.186;2022-09-17T08:47:34;7.23;;;3.10;;
59530;SDS011;45349;48.692;8.186;2022-09-17T08:50:12;7.60;;;3.00;;
59530;SDS011;45349;48.692;8.186;2022-09-17T08:55:41;8.60;;;3.33;;
59530;SDS011;45349;48.692;8.186;2022-09-17T08:58:26;8.60;;;3.27;;
59530;SDS011;45349;48.692;8.186;2022-09-17T09:04:30;8.17;;;3.10;;
59530;SDS011;45349;48.692;8.186;2022-09-17T09:07:21;5.23;;;2.87;;
59530;SDS011;45349;48.692;8.186;2022-09-17T09:09:56;10.23;;;3.20;;
59530;SDS011;45349;48.692;8.186;2022-09-17T09:12:41;4.27;;;2.40;;
59530;SDS011;45349;48.692;8.186;2022-09-17T09:15:24;6.53;;;2.57;;
59530;SDS011;45349;48.692;8.186;2022-09-17T09:18:08;6.00;;;2.30;;
59530;SDS011;45349;48.692;8.186;2022-09-17T09:20:48;6.60;;;2.63;;
59530;SDS011;45349;48.692;8.186;2022-09-17T09:23:25;11.63;;;2.97;;
59530;SDS011;45349;48.692;8.186;2022-09-17T09:26:05;8.63;;;3.00;;
59530;SDS011;45349;48.692;8.186;2022-09-17T09:28:48;6.37;;;2.57;;
59530;SDS011;45349;48.692;8.186;2022-09-17T09:31:36;8.33;;;2.90;;
59530;SDS011;45349;48.692;8.186;2022-09-17T09:34:19;8.50;;;2.90;;
59530;SDS011;45349;48.692;8.186;2022-09-17T09:36:50;7.63;;;2.80;;
59530;SDS011;45349;48.692;8.186;2022-09-17T09:39:23;8.80;;;2.90;;
59530;SDS011;45349;48.692;8.186;2022-09-17T09:41:54;10.03;;;4.10;;
59530;SDS011;45349;48.692;8.186;2022-09-17T09:44:28;5.57;;;2.50;;
59530;SDS011;45349;48.692;8.186;2022-09-17T09:50:16;7.50;;;2.83;;
59530;SDS011;45349;48.692;8.186;2022-09-17T09:53:11;9.23;;;3.27;;
59530;SDS011;45349;48.692;8.186;2022-09-17T09:55:51;5.77;;;2.20;;
59530;SDS011;45349;48.692;8.186;2022-09-17T09:58:33;11.67;;;3.30;;
59530;SDS011;45349;48.692;8.186;2022-09-17T10:01:01;7.67;;;2.50;;
59530;SDS011;45349;48.692;8.186;2022-09-17T10:03:30;6.60;;;3.00;;
59530;SDS011;45349;48.692;8.186;2022-09-17T10:05:58;5.43;;;2.57;;
59530;SDS011;45349;48.692;8.186;2022-09-17T10:08:27;4.27;;;2.20;;
59530;SDS011;45349;48.692;8.186;2022-09-17T10:10:56;9.70;;;2.60;;
59530;SDS011;45349;48.692;8.186;2022-09-17T10:13:25;6.63;;;2.57;;
59530;SDS011;45349;48.692;8.186;2022-09-17T10:15:53;6.30;;;2.77;;
59530;SDS011;45349;48.692;8.186;2022-09-17T10:18:20;6.80;;;2.77;;
59530;SDS011;45349;48.692;8.186;2022-09-17T10:20:53;8.90;;;2.57;;
59530;SDS011;45349;48.692;8.186;2022-09-17T10:23:22;4.67;;;2.57;;
59530;SDS011;45349;48.692;8.186;2022-09-17T10:25:50;5.67;;;2.57;;
59530;SDS011;45349;48.692;8.186;2022-09-17T10:31:33;9.07;;;2.77;;
59530;SDS011;45349;48.692;8.186;2022-09-17T10:34:17;8.10;;;2.23;;
59530;SDS011;45349;48.692;8.186;2022-09-17T10:36:47;4.63;;;2.50;;
59530;SDS011;45349;48.692;8.186;2022-09-17T10:39:18;8.77;;;2.20;;
59530;SDS011;45349;48.692;8.186;2022-09-17T10:42:01;8.13;;;2.37;;
59530;SDS011;45349;48.692;8.186;2022-09-17T10:44:29;6.63;;;2.73;;
59530;SDS011;45349;48.692;8.186;2022-09-17T10:47:06;6.07;;;2.93;;
59530;SDS011;45349;48.692;8.186;2022-09-17T10:49:39;8.23;;;2.27;;
59530;SDS011;45349;48.692;8.186;2022-09-17T10:52:11;6.03;;;2.50;;
59530;SDS011;45349;48.692;8.186;2022-09-17T10:57:42;6.43;;;2.60;;
59530;SDS011;45349;48.692;8.186;2022-09-17T11:00:19;7.33;;;2.77;;
59530;SDS011;45349;48.692;8.186;2022-09-17T11:02:58;15.03;;;3.30;;
59530;SDS011;45349;48.692;8.186;2022-09-17T11:05:59;5.50;;;2.30;;
59530;SDS011;45349;48.692;8.186;2022-09-17T11:08:43;4.67;;;2.67;;
59530;SDS011;45349;48.692;8.186;2022-09-17T11:11:22;8.63;;;2.50;;
59530;SDS011;45349;48.692;8.186;2022-09-17T11:14:04;3.67;;;1.70;;
59530;SDS011;45349;48.692;8.186;2022-09-17T11:16:43;5.07;;;2.30;;
59530;SDS011;45349;48.692;8.186;2022-09-17T11:19:40;4.47;;;1.90;;
59530;SDS011;45349;48.692;8.186;2022-09-17T11:22:16;5.73;;;1.80;;
59530;SDS011;45349;48.692;8.186;2022-09-17T11:27:54;8.00;;;2.53;;
59530;SDS011;45349;48.692;8.186;2022-09-17T11:30:32;6.07;;;1.73;;
59530;SDS011;45349;48.692;8.186;2022-09-17T11:33:23;6.40;;;1.90;;
59530;SDS011;45349;48.692;8.186;2022-09-17T11:36:02;4.87;;;1.63;;
59530;SDS011;45349;48.692;8.186;2022-09-17T11:38:37;6.57;;;2.07;;
59530;SDS011;45349;48.692;8.186;2022-09-17T11:41:09;7.90;;;1.80;;
59530;SDS011;45349;48.692;8.186;2022-09-17T11:43:41;8.07;;;1.80;;
59530;SDS011;45349;48.692;8.186;2022-09-17T11:46:13;7.47;;;1.43;;
59530;SDS011;45349;48.692;8.186;2022-09-17T11:48:45;9.40;;;1.93;;
59530;SDS011;45349;48.692;8.186;2022-09-17T11:51:19;7.37;;;2.37;;
59530;SDS011;45349;48.692;8.186;2022-09-17T11:53:50;4.53;;;1.63;;
59530;SDS011;45349;48.692;8.186;2022-09-17T11:56:24;7.03;;;2.10;;
59530;SDS011;45349;48.692;8.186;2022-09-17T11:58:56;2.33;;;1.50;;
59530;SDS011;45349;48.692;8.186;2022-09-17T12:01:30;6.93;;;2.00;;
59530;SDS011;45349;48.692;8.186;2022-09-17T12:04:02;6.70;;;2.07;;
59530;SDS011;45349;48.692;8.186;2022-09-17T12:06:43;3.17;;;1.40;;
59530;SDS011;45349;48.692;8.186;2022-09-17T12:09:16;5.57;;;2.00;;
59530;SDS011;45349;48.692;8.186;2022-09-17T12:11:49;9.70;;;1.70;;
59530;SDS011;45349;48.692;8.186;2022-09-17T12:14:21;4.87;;;1.50;;
59530;SDS011;45349;48.692;8.186;2022-09-17T12:16:51;6.93;;;1.30;;
59530;SDS011;45349;48.692;8.186;2022-09-17T12:19:23;4.13;;;1.47;;
59530;SDS011;45349;48.692;8.186;2022-09-17T12:21:55;4.47;;;1.30;;
59530;SDS011;45349;48.692;8.186;2022-09-17T12:24:27;4.30;;;1.30;;
59530;SDS011;45349;48.692;8.186;2022-09-17T12:26:59;3.20;;;1.33;;
59530;SDS011;45349;48.692;8.186;2022-09-17T12:29:47;3.43;;;1.20;;
59530;SDS011;45349;48.692;8.186;2022-09-17T12:32:40;5.13;;;1.47;;
59530;SDS011;45349;48.692;8.186;2022-09-17T12:35:41;5.60;;;1.03;;
59530;SDS011;45349;48.692;8.186;2022-09-17T12:38:24;3.73;;;1.27;;
59530;SDS011;45349;48.692;8.186;2022-09-17T12:41:02;5.07;;;1.20;;
59530;SDS011;45349;48.692;8.186;2022-09-17T12:43:40;6.73;;;2.87;;
59530;SDS011;45349;48.692;8.186;2022-09-17T12:46:29;4.50;;;1.10;;
59530;SDS011;45349;48.692;8.186;2022-09-17T12:49:24;4.97;;;1.63;;
59530;SDS011;45349;48.692;8.186;2022-09-17T12:52:09;5.10;;;1.90;;
59530;SDS011;45349;48.692;8.186;2022-09-17T12:54:45;4.30;;;1.47;;
59530;SDS011;45349;48.692;8.186;2022-09-17T12:57:27;8.27;;;2.30;;
59530;SDS011;45349;48.692;8.186;2022-09-17T13:00:04;4.80;;;1.40;;
59530;SDS011;45349;48.692;8.186;2022-09-17T13:02:36;5.83;;;1.13;;
59530;SDS011;45349;48.692;8.186;2022-09-17T13:05:18;5.10;;;1.20;;
59530;SDS011;45349;48.692;8.186;2022-09-17T13:08:12;6.33;;;1.37;;
59530;SDS011;45349;48.692;8.186;2022-09-17T13:11:12;5.03;;;1.43;;
59530;SDS011;45349;48.692;8.186;2022-09-17T13:13:55;6.03;;;1.80;;
59530;SDS011;45349;48.692;8.186;2022-09-17T13:16:32;4.10;;;1.37;;
59530;SDS011;45349;48.692;8.186;2022-09-17T13:19:09;8.47;;;1.10;;
59530;SDS011;45349;48.692;8.186;2022-09-17T13:21:50;4.77;;;1.37;;
59530;SDS011;45349;48.692;8.186;2022-09-17T13:24:20;3.87;;;1.23;;
59530;SDS011;45349;48.692;8.186;2022-09-17T13:26:50;3.50;;;1.40;;
59530;SDS011;45349;48.692;8.186;2022-09-17T13:32:42;4.57;;;1.33;;
59530;SDS011;45349;48.692;8.186;2022-09-17T13:38:14;3.17;;;0.97;;
59530;SDS011;45349;48.692;8.186;2022-09-17T13:40:43;2.97;;;0.90;;
59530;SDS011;45349;48.692;8.186;2022-09-17T13:43:11;3.53;;;1.30;;
59530;SDS011;45349;48.692;8.186;2022-09-17T13:48:44;3.57;;;1.13;;
59530;SDS011;45349;48.692;8.186;2022-09-17T13:54:13;4.70;;;2.83;;
59530;SDS011;45349;48.692;8.186;2022-09-17T13:56:42;3.83;;;1.40;;
59530;SDS011;45349;48.692;8.186;2022-09-17T13:59:12;4.73;;;2.07;;
59530;SDS011;45349;48.692;8.186;2022-09-17T14:04:34;6.13;;;1.37;;
59530;SDS011;45349;48.692;8.186;2022-09-17T14:07:31;5.33;;;1.90;;
59530;SDS011;45349;48.692;8.186;2022-09-17T14:15:55;7.93;;;2.33;;
59530;SDS011;45349;48.692;8.186;2022-09-17T14:18:33;7.13;;;2.00;;
59530;SDS011;45349;48.692;8.186;2022-09-17T14:21:22;4.53;;;2.53;;
59530;SDS011;45349;48.692;8.186;2022-09-17T14:23:54;3.47;;;1.40;;
59530;SDS011;45349;48.692;8.186;2022-09-17T14:32:21;6.10;;;1.47;;
59530;SDS011;45349;48.692;8.186;2022-09-17T14:34:57;6.23;;;1.90;;
59530;SDS011;45349;48.692;8.186;2022-09-17T14:37:26;2.30;;;1.40;;
59530;SDS011;45349;48.692;8.186;2022-09-17T14:39:53;4.33;;;1.30;;
59530;SDS011;45349;48.692;8.186;2022-09-17T14:42:21;3.33;;;0.93;;
59530;SDS011;45349;48.692;8.186;2022-09-17T14:44:54;4.80;;;2.10;;
59530;SDS011;45349;48.692;8.186;2022-09-17T14:47:42;3.33;;;1.50;;
59530;SDS011;45349;48.692;8.186;2022-09-17T14:50:19;6.73;;;1.70;;
59530;SDS011;45349;48.692;8.186;2022-09-17T14:52:49;8.47;;;1.50;;
59530;SDS011;45349;48.692;8.186;2022-09-17T14:55:18;3.63;;;1.43;;
59530;SDS011;45349;48.692;8.186;2022-09-17T14:57:48;6.37;;;1.47;;
59530;SDS011;45349;48.692;8.186;2022-09-17T15:00:18;6.27;;;1.50;;
59530;SDS011;45349;48.692;8.186;2022-09-17T15:02:50;8.90;;;3.67;;
59530;SDS011;45349;48.692;8.186;2022-09-17T15:05:21;6.37;;;2.03;;
59530;SDS011;45349;48.692;8.186;2022-09-17T15:08:02;4.23;;;1.50;;
59530;SDS011;45349;48.692;8.186;2022-09-17T15:10:33;7.77;;;1.50;;
59530;SDS011;45349;48.692;8.186;2022-09-17T15:13:01;6.87;;;1.47;;
59530;SDS011;45349;48.692;8.186;2022-09-17T15:15:28;3.30;;;1.40;;
59530;SDS011;45349;48.692;8.186;2022-09-17T15:17:56;4.00;;;1.67;;
59530;SDS011;45349;48.692;8.186;2022-09-17T15:20:27;4.27;;;1.73;;
59530;SDS011;45349;48.692;8.186;2022-09-17T15:22:58;5.60;;;1.90;;
59530;SDS011;45349;48.692;8.186;2022-09-17T15:25:33;3.47;;;1.60;;
59530;SDS011;45349;48.692;8.186;2022-09-17T15:28:03;5.40;;;1.00;;
59530;SDS011;45349;48.692;8.186;2022-09-17T15:30:38;5.47;;;1.30;;
59530;SDS011;45349;48.692;8.186;2022-09-17T15:33:08;4.53;;;1.37;;
59530;SDS011;45349;48.692;8.186;2022-09-17T15:35:36;4.43;;;1.30;;
59530;SDS011;45349;48.692;8.186;2022-09-17T15:38:18;5.60;;;1.30;;
59530;SDS011;45349;48.692;8.186;2022-09-17T15:40:46;5.83;;;1.63;;
59530;SDS011;45349;48.692;8.186;2022-09-17T15:43:14;6.53;;;1.70;;
59530;SDS011;45349;48.692;8.186;2022-09-17T15:45:43;6.77;;;1.43;;
59530;SDS011;45349;48.692;8.186;2022-09-17T15:48:17;7.53;;;1.40;;
59530;SDS011;45349;48.692;8.186;2022-09-17T15:50:49;5.83;;;1.63;;
59530;SDS011;45349;48.692;8.186;2022-09-17T15:53:22;7.10;;;1.47;;
59530;SDS011;45349;48.692;8.186;2022-09-17T15:55:57;3.67;;;1.20;;
59530;SDS011;45349;48.692;8.186;2022-09-17T15:58:35;5.60;;;1.33;;
59530;SDS011;45349;48.692;8.186;2022-09-17T16:01:39;4.83;;;1.23;;
59530;SDS011;45349;48.692;8.186;2022-09-17T16:04:17;9.93;;;1.07;;
59530;SDS011;45349;48.692;8.186;2022-09-17T16:06:53;7.80;;;1.57;;
59530;SDS011;45349;48.692;8.186;2022-09-17T16:09:40;6.20;;;1.10;;
59530;SDS011;45349;48.692;8.186;2022-09-17T16:12:14;6.67;;;1.23;;
59530;SDS011;45349;48.692;8.186;2022-09-17T16:14:43;6.27;;;1.50;;
59530;SDS011;45349;48.692;8.186;2022-09-17T16:20:05;10.77;;;1.40;;
59530;SDS011;45349;48.692;8.186;2022-09-17T16:22:39;4.67;;;1.17;;
59530;SDS011;45349;48.692;8.186;2022-09-17T16:25:08;5.67;;;1.00;;
59530;SDS011;45349;48.692;8.186;2022-09-17T16:27:38;4.67;;;1.00;;